createdAt,value
2023-03-18T00:01:04.152Z,2.17
2023-03-18T00:03:32.564Z,2.47
2023-03-18T00:06:08.507Z,2.53
2023-03-18T00:08:37.157Z,2.20
2023-03-18T00:11:08.203Z,2.40
2023-03-18T00:13:36.203Z,2.23
2023-03-18T00:16:07.011Z,2.30
2023-03-18T00:18:35.391Z,2.10
2023-03-18T00:21:03.901Z,2.70
2023-03-18T00:23:32.304Z,2.60
2023-03-18T00:26:00.787Z,2.50
2023-03-18T00:28:29.243Z,2.10
2023-03-18T00:30:58.358Z,2.40
2023-03-18T00:33:27.601Z,2.40
2023-03-18T00:35:55.592Z,2.40
2023-03-18T00:38:24.594Z,3.03
2023-03-18T00:41:01.713Z,2.90
2023-03-18T00:43:33.659Z,2.30
2023-03-18T00:46:01.784Z,2.50
2023-03-18T00:48:31.494Z,2.17
2023-03-18T00:50:59.343Z,2.33
2023-03-18T00:53:27.143Z,2.50
2023-03-18T00:55:55.383Z,2.10
2023-03-18T00:58:23.241Z,2.30
2023-03-18T01:00:51.140Z,2.57
2023-03-18T01:03:19.770Z,2.40
2023-03-18T01:05:49.047Z,2.70
2023-03-18T01:08:17.438Z,2.83
2023-03-18T01:10:45.282Z,2.40
2023-03-18T01:13:13.462Z,2.53
2023-03-18T01:15:41.916Z,2.50
2023-03-18T01:18:11.182Z,2.80
2023-03-18T01:20:39.536Z,2.43
2023-03-18T01:23:08.915Z,2.67
2023-03-18T01:25:37.437Z,2.73
2023-03-18T01:28:06.340Z,2.93
2023-03-18T01:30:35.562Z,2.70
2023-03-18T01:33:04.649Z,2.53
2023-03-18T01:35:33.283Z,3.00
2023-03-18T01:38:04.410Z,3.23
2023-03-18T01:40:34.922Z,2.90
2023-03-18T01:43:14.454Z,2.67
2023-03-18T01:45:45.542Z,2.57
2023-03-18T01:48:16.357Z,2.97
2023-03-18T01:50:44.901Z,2.67
2023-03-18T01:53:15.449Z,3.07
2023-03-18T01:55:45.248Z,3.00
2023-03-18T01:58:18.647Z,3.23
2023-03-18T02:00:51.701Z,3.77
2023-03-18T02:03:21.058Z,4.97
2023-03-18T02:05:50.383Z,6.97
2023-03-18T02:08:18.699Z,6.57
2023-03-18T02:10:49.195Z,9.13
2023-03-18T02:13:17.826Z,9.53
2023-03-18T02:15:49.054Z,9.43
2023-03-18T02:18:20.035Z,9.93
2023-03-18T02:21:08.483Z,8.63
2023-03-18T02:23:43.509Z,9.30
2023-03-18T02:26:18.131Z,9.83
2023-03-18T02:28:48.416Z,11.43
2023-03-18T02:31:18.193Z,11.20
2023-03-18T02:33:46.210Z,11.07
2023-03-18T02:36:19.727Z,12.73
2023-03-18T02:38:47.990Z,12.53
2023-03-18T02:41:18.910Z,11.93
2023-03-18T02:43:48.494Z,13.73
2023-03-18T02:46:25.645Z,14.97
2023-03-18T02:48:54.353Z,16.80
2023-03-18T02:51:23.321Z,18.17
2023-03-18T02:53:51.750Z,18.60
2023-03-18T02:56:19.553Z,17.40
2023-03-18T02:58:51.241Z,15.27
2023-03-18T03:01:19.593Z,13.27
2023-03-18T03:03:47.422Z,11.00
2023-03-18T03:06:15.329Z,12.20
2023-03-18T03:08:43.150Z,12.40
2023-03-18T03:11:11.529Z,12.07
2023-03-18T03:13:39.942Z,12.23
2023-03-18T03:16:10.764Z,11.73
2023-03-18T03:18:38.634Z,11.60
2023-03-18T03:21:07.880Z,13.13
2023-03-18T03:23:36.677Z,12.50
2023-03-18T03:26:05.278Z,12.83
2023-03-18T03:28:34.410Z,12.17
2023-03-18T03:31:02.414Z,11.57
2023-03-18T03:33:31.805Z,11.10
2023-03-18T03:35:59.715Z,11.10
2023-03-18T03:38:27.611Z,10.87
2023-03-18T03:40:55.418Z,10.10
2023-03-18T03:43:23.188Z,11.00
2023-03-18T03:45:50.991Z,10.20
2023-03-18T03:48:18.796Z,9.73
2023-03-18T03:50:49.211Z,9.43
2023-03-18T03:53:16.974Z,7.67
2023-03-18T03:55:44.806Z,7.73
2023-03-18T03:58:12.594Z,8.67
2023-03-18T04:00:40.337Z,7.47
2023-03-18T04:03:08.154Z,6.80
2023-03-18T04:05:35.943Z,7.10
2023-03-18T04:08:05.251Z,6.50
2023-03-18T04:10:34.839Z,6.67
2023-03-18T04:13:03.227Z,6.37
2023-03-18T04:15:31.022Z,5.80
2023-03-18T04:17:58.963Z,6.10
2023-03-18T04:20:27.667Z,6.20
2023-03-18T04:22:55.446Z,5.80
2023-03-18T04:25:24.699Z,5.03
2023-03-18T04:27:52.785Z,5.23
2023-03-18T04:30:23.358Z,5.23
2023-03-18T04:32:51.913Z,5.50
2023-03-18T04:35:21.055Z,5.30
2023-03-18T04:37:48.845Z,4.80
2023-03-18T04:40:16.989Z,5.10
2023-03-18T04:42:47.816Z,4.77
2023-03-18T04:45:16.807Z,5.60
2023-03-18T04:47:45.322Z,5.60
2023-03-18T04:50:14.340Z,5.30
2023-03-18T04:52:42.810Z,5.43
2023-03-18T04:55:11.781Z,5.13
2023-03-18T04:57:39.826Z,5.07
2023-03-18T05:00:12.009Z,5.27
2023-03-18T05:02:40.125Z,4.40
2023-03-18T05:05:08.715Z,4.50
2023-03-18T05:07:36.850Z,5.07
2023-03-18T05:10:06.858Z,4.47
2023-03-18T05:12:34.789Z,5.03
2023-03-18T05:15:02.541Z,4.33
2023-03-18T05:17:31.752Z,4.83
2023-03-18T05:19:59.567Z,4.23
2023-03-18T05:22:27.553Z,4.07
2023-03-18T05:24:55.883Z,4.57
2023-03-18T05:27:23.897Z,4.10
2023-03-18T05:29:51.758Z,4.00
2023-03-18T05:32:19.620Z,4.70
2023-03-18T05:34:48.719Z,4.20
2023-03-18T05:37:16.940Z,3.60
2023-03-18T05:39:45.440Z,4.30
2023-03-18T05:42:14.251Z,4.07
2023-03-18T05:44:42.247Z,3.83
2023-03-18T05:47:10.590Z,4.27
2023-03-18T05:49:38.442Z,3.80
2023-03-18T05:52:07.670Z,4.30
2023-03-18T05:54:35.422Z,4.10
2023-03-18T05:57:03.236Z,3.83
2023-03-18T05:59:31.977Z,4.07
2023-03-18T06:02:00.509Z,4.10
2023-03-18T06:04:28.840Z,3.70
2023-03-18T06:06:57.067Z,4.37
2023-03-18T06:09:27.353Z,3.80
2023-03-18T06:11:55.343Z,3.63
2023-03-18T06:14:25.948Z,4.37
2023-03-18T06:16:54.277Z,3.43
2023-03-18T06:19:22.157Z,3.43
2023-03-18T06:21:50.964Z,3.20
2023-03-18T06:24:18.853Z,3.50
2023-03-18T06:26:47.990Z,3.40
2023-03-18T06:29:16.415Z,3.17
2023-03-18T06:31:44.200Z,3.47
2023-03-18T06:34:13.119Z,3.27
2023-03-18T06:36:40.916Z,3.17
2023-03-18T06:39:08.758Z,3.40
2023-03-18T06:41:36.507Z,3.40
2023-03-18T06:44:06.222Z,3.27
2023-03-18T06:46:34.126Z,3.07
2023-03-18T06:49:02.376Z,3.30
2023-03-18T06:51:30.242Z,3.23
2023-03-18T06:53:58.059Z,3.00
2023-03-18T06:56:25.911Z,2.80
2023-03-18T06:58:54.329Z,2.90
2023-03-18T07:01:23.559Z,3.10
2023-03-18T07:03:51.586Z,2.90
2023-03-18T07:06:19.843Z,2.90
2023-03-18T07:08:47.635Z,3.10
2023-03-18T07:11:16.697Z,3.10
2023-03-18T07:13:44.744Z,3.40
2023-03-18T07:16:12.802Z,3.30
2023-03-18T07:18:42.802Z,3.53
2023-03-18T07:21:11.420Z,2.80
2023-03-18T07:23:41.138Z,3.03
2023-03-18T07:26:09.072Z,2.87
2023-03-18T07:28:36.941Z,3.17
2023-03-18T07:31:04.831Z,3.47
2023-03-18T07:33:33.244Z,3.10
2023-03-18T07:36:02.988Z,3.50
2023-03-18T07:38:30.973Z,3.20
2023-03-18T07:40:58.725Z,3.50
2023-03-18T07:43:27.229Z,3.10
2023-03-18T07:45:55.740Z,3.87
2023-03-18T07:48:23.535Z,3.07
2023-03-18T07:50:51.457Z,3.40
2023-03-18T07:53:21.099Z,3.40
2023-03-18T07:55:48.929Z,3.47
2023-03-18T07:58:16.716Z,3.50
2023-03-18T08:00:45.142Z,3.40
2023-03-18T08:03:13.994Z,3.70
2023-03-18T08:05:42.173Z,3.60
2023-03-18T08:08:09.920Z,2.53
2023-03-18T08:10:39.146Z,3.33
2023-03-18T08:13:06.932Z,3.23
2023-03-18T08:15:35.311Z,3.13
2023-03-18T08:18:03.349Z,2.83
2023-03-18T08:20:31.160Z,2.90
2023-03-18T08:22:59.249Z,3.30
2023-03-18T08:25:27.112Z,3.10
2023-03-18T08:27:56.734Z,2.90
2023-03-18T08:30:28.746Z,2.90
2023-03-18T08:32:57.418Z,3.23
2023-03-18T08:35:25.854Z,3.00
2023-03-18T08:37:53.884Z,2.63
2023-03-18T08:40:21.754Z,2.83
2023-03-18T08:42:49.519Z,2.70
2023-03-18T08:45:19.392Z,3.00
2023-03-18T08:47:47.347Z,2.73
2023-03-18T08:50:15.570Z,2.70
2023-03-18T08:52:43.469Z,2.73
2023-03-18T08:55:11.641Z,3.10
2023-03-18T08:57:39.805Z,2.83
2023-03-18T09:00:09.045Z,3.10
2023-03-18T09:02:38.294Z,2.57
2023-03-18T09:05:07.049Z,2.97
2023-03-18T09:07:34.875Z,2.80
2023-03-18T09:10:02.645Z,2.63
2023-03-18T09:12:30.825Z,2.80
2023-03-18T09:14:59.009Z,2.53
2023-03-18T09:17:43.762Z,2.70
2023-03-18T09:20:18.051Z,3.00
2023-03-18T09:22:46.926Z,2.80
2023-03-18T09:25:14.803Z,2.90
2023-03-18T09:27:43.896Z,2.83
2023-03-18T09:30:12.717Z,2.90
2023-03-18T09:32:40.592Z,3.00
2023-03-18T09:35:13.022Z,2.87
2023-03-18T09:37:42.409Z,3.23
2023-03-18T09:40:20.818Z,3.17
2023-03-18T09:42:57.196Z,3.23
2023-03-18T09:45:29.624Z,2.90
2023-03-18T09:48:05.960Z,3.33
2023-03-18T09:50:39.612Z,2.80
2023-03-18T09:53:15.573Z,3.40
2023-03-18T09:55:47.012Z,3.13
2023-03-18T09:58:21.643Z,3.10
2023-03-18T10:00:49.568Z,3.20
2023-03-18T10:03:25.761Z,2.97
2023-03-18T10:05:55.399Z,3.00
2023-03-18T10:08:35.913Z,2.80
2023-03-18T10:11:08.051Z,2.70
2023-03-18T10:13:40.152Z,2.97
2023-03-18T10:16:14.674Z,3.27
2023-03-18T10:18:43.340Z,2.87
2023-03-18T10:21:17.845Z,2.93
2023-03-18T10:23:51.671Z,3.05
2023-03-18T10:26:22.431Z,3.03
2023-03-18T10:29:09.006Z,3.17
2023-03-18T10:31:48.208Z,3.07
2023-03-18T10:34:17.576Z,2.83
2023-03-18T10:36:51.575Z,3.40
2023-03-18T10:39:24.876Z,3.17
2023-03-18T10:41:53.590Z,2.90
2023-03-18T10:44:23.894Z,3.30
2023-03-18T10:46:57.337Z,3.10
2023-03-18T10:49:29.080Z,2.93
2023-03-18T10:52:14.524Z,3.27
2023-03-18T10:54:46.675Z,2.47
2023-03-18T10:57:15.862Z,3.10
2023-03-18T10:59:45.483Z,2.83
2023-03-18T11:02:19.668Z,3.00
2023-03-18T11:04:49.921Z,2.80
2023-03-18T11:07:19.830Z,2.90
2023-03-18T11:09:49.037Z,2.83
2023-03-18T11:12:19.447Z,2.97
2023-03-18T11:14:49.550Z,3.00
2023-03-18T11:17:23.346Z,2.57
2023-03-18T11:20:00.831Z,3.27
2023-03-18T11:22:29.012Z,2.67
2023-03-18T11:25:07.223Z,2.90
2023-03-18T11:27:39.086Z,3.30
2023-03-18T11:30:21.452Z,2.97
2023-03-18T11:33:00.361Z,2.87
2023-03-18T11:35:34.339Z,2.53
2023-03-18T11:38:04.271Z,3.13
2023-03-18T11:40:33.865Z,2.90
2023-03-18T11:43:04.589Z,2.80
2023-03-18T11:45:40.516Z,2.90
2023-03-18T11:48:15.621Z,2.90
2023-03-18T11:50:51.780Z,2.83
2023-03-18T11:53:27.373Z,2.67
2023-03-18T11:55:59.680Z,2.77
2023-03-18T11:58:58.189Z,3.00
2023-03-18T12:01:32.932Z,2.80
2023-03-18T12:04:21.989Z,2.83
2023-03-18T12:06:59.092Z,3.10
2023-03-18T12:09:31.483Z,2.43
2023-03-18T12:12:10.092Z,2.40
2023-03-18T12:14:42.336Z,2.30
2023-03-18T12:17:27.083Z,2.60
2023-03-18T12:20:32.635Z,2.50
2023-03-18T12:23:05.470Z,2.80
2023-03-18T12:25:42.799Z,2.47
2023-03-18T12:28:20.856Z,2.73
2023-03-18T12:30:57.392Z,2.53
2023-03-18T12:33:34.127Z,2.67
2023-03-18T12:36:09.227Z,2.30
2023-03-18T12:38:46.189Z,2.90
2023-03-18T12:41:18.546Z,2.50
2023-03-18T12:44:08.890Z,2.40
2023-03-18T12:46:41.382Z,2.67
2023-03-18T12:49:13.167Z,2.47
2023-03-18T12:51:45.949Z,2.47
2023-03-18T12:54:19.137Z,2.50
2023-03-18T12:56:51.119Z,2.47
2023-03-18T12:59:24.723Z,2.80
2023-03-18T13:02:03.769Z,2.60
2023-03-18T13:04:35.978Z,2.20
2023-03-18T13:07:08.359Z,2.47
2023-03-18T13:09:39.625Z,3.13
2023-03-18T13:12:10.126Z,2.50
2023-03-18T13:14:47.412Z,2.70
2023-03-18T13:17:17.759Z,2.50
2023-03-18T13:19:46.170Z,2.53
2023-03-18T13:22:29.796Z,2.67
2023-03-18T13:25:12.730Z,2.57
2023-03-18T13:27:48.592Z,2.70
2023-03-18T13:30:25.358Z,2.60
2023-03-18T13:33:19.256Z,2.20
2023-03-18T13:36:07.082Z,2.53
2023-03-18T13:38:56.844Z,2.40
2023-03-18T13:41:50.394Z,2.33
2023-03-18T13:44:23.420Z,2.10
2023-03-18T13:46:59.363Z,2.57
2023-03-18T13:49:29.894Z,2.40
2023-03-18T13:51:59.833Z,2.40
2023-03-18T13:54:34.735Z,2.33
2023-03-18T13:57:18.804Z,2.33
2023-03-18T13:59:48.707Z,2.17
2023-03-18T14:02:46.017Z,2.17
2023-03-18T14:05:36.967Z,2.17
2023-03-18T14:08:06.417Z,2.13
2023-03-18T14:10:34.290Z,2.60
2023-03-18T14:13:27.250Z,2.37
2023-03-18T14:15:57.346Z,2.27
2023-03-18T14:18:29.046Z,2.50
2023-03-18T14:21:04.632Z,2.70
2023-03-18T14:23:39.323Z,3.07
2023-03-18T14:26:09.560Z,2.40
2023-03-18T14:28:43.403Z,2.60
2023-03-18T14:31:34.210Z,2.30
2023-03-18T14:34:28.907Z,2.93
2023-03-18T14:37:18.959Z,3.00
2023-03-18T14:39:47.908Z,2.60
2023-03-18T14:42:28.727Z,2.80
2023-03-18T14:45:02.343Z,2.73
2023-03-18T14:47:40.723Z,2.60
2023-03-18T14:50:17.082Z,2.70
2023-03-18T14:52:51.347Z,2.67
2023-03-18T14:55:22.157Z,2.60
2023-03-18T14:57:50.007Z,2.47
2023-03-18T15:00:19.423Z,2.97
2023-03-18T15:02:47.360Z,2.30
2023-03-18T15:05:19.251Z,2.40
2023-03-18T15:07:51.499Z,2.40
2023-03-18T15:10:24.541Z,2.03
2023-03-18T15:12:59.665Z,2.00
2023-03-18T15:15:28.591Z,2.33
2023-03-18T15:17:56.380Z,2.17
2023-03-18T15:20:25.928Z,2.30
2023-03-18T15:22:54.246Z,1.90
2023-03-18T15:25:24.469Z,1.87
2023-03-18T15:27:56.077Z,1.90
2023-03-18T15:30:27.476Z,2.43
2023-03-18T15:33:04.291Z,2.43
2023-03-18T15:35:34.000Z,2.40
2023-03-18T15:38:08.049Z,2.40
2023-03-18T15:40:36.751Z,2.20
2023-03-18T15:43:07.148Z,2.40
2023-03-18T15:45:35.657Z,2.47
2023-03-18T15:48:08.432Z,2.47
2023-03-18T15:50:42.381Z,2.10
2023-03-18T15:53:20.056Z,2.57
2023-03-18T15:55:49.640Z,2.30
2023-03-18T15:58:23.151Z,2.40
2023-03-18T16:00:52.973Z,2.40
2023-03-18T16:03:23.751Z,2.60
2023-03-18T16:05:57.154Z,2.20
2023-03-18T16:08:25.491Z,2.00
2023-03-18T16:10:56.641Z,2.15
2023-03-18T16:13:26.318Z,2.15
2023-03-18T16:15:54.392Z,2.00
2023-03-18T16:18:22.764Z,2.10
2023-03-18T16:20:51.223Z,2.00
2023-03-18T16:23:20.972Z,2.10
2023-03-18T16:25:51.365Z,1.87
2023-03-18T16:28:22.124Z,2.60
2023-03-18T16:30:52.156Z,2.07
2023-03-18T16:33:20.848Z,2.30
2023-03-18T16:35:53.869Z,2.30
2023-03-18T16:38:23.135Z,2.30
2023-03-18T16:40:53.812Z,2.10
2023-03-18T16:43:23.856Z,2.30
2023-03-18T16:45:52.178Z,2.83
2023-03-18T16:48:21.885Z,1.93
2023-03-18T16:50:51.148Z,2.20
2023-03-18T16:53:21.643Z,2.43
2023-03-18T16:55:52.131Z,2.20
2023-03-18T16:58:22.442Z,2.00
2023-03-18T17:00:51.219Z,2.00
2023-03-18T17:03:19.998Z,2.23
2023-03-18T17:05:50.599Z,2.00
2023-03-18T17:08:19.118Z,2.33
2023-03-18T17:10:48.194Z,2.03
2023-03-18T17:13:20.498Z,2.10
2023-03-18T17:15:48.682Z,1.97
2023-03-18T17:18:18.071Z,2.10
2023-03-18T17:20:47.226Z,2.40
2023-03-18T17:23:20.472Z,2.40
2023-03-18T17:25:52.388Z,2.40
2023-03-18T17:28:29.873Z,2.13
2023-03-18T17:30:57.847Z,2.17
2023-03-18T17:33:27.587Z,2.53
2023-03-18T17:35:56.561Z,2.67
2023-03-18T17:38:24.951Z,3.47
2023-03-18T17:40:53.298Z,13.87
2023-03-18T17:43:27.684Z,16.83
2023-03-18T17:45:56.727Z,20.27
2023-03-18T17:48:26.192Z,19.23
2023-03-18T17:50:56.251Z,21.77
2023-03-18T17:53:26.900Z,25.57
2023-03-18T17:55:55.607Z,20.87
2023-03-18T17:58:26.096Z,13.90
2023-03-18T18:00:55.638Z,8.37
2023-03-18T18:03:26.720Z,6.90
2023-03-18T18:05:55.401Z,7.73
2023-03-18T18:08:25.469Z,6.70
2023-03-18T18:10:54.488Z,5.60
2023-03-18T18:13:24.092Z,3.77
2023-03-18T18:15:52.775Z,2.80
2023-03-18T18:18:26.327Z,2.47
2023-03-18T18:20:56.466Z,2.33
2023-03-18T18:23:30.040Z,2.37
2023-03-18T18:26:00.157Z,2.10
2023-03-18T18:28:33.134Z,2.40
2023-03-18T18:31:02.514Z,2.33
2023-03-18T18:33:34.045Z,2.53
2023-03-18T18:36:02.446Z,2.40
2023-03-18T18:38:30.857Z,2.50
2023-03-18T18:41:00.182Z,2.43
2023-03-18T18:43:28.830Z,2.87
2023-03-18T18:45:57.805Z,3.27
2023-03-18T18:48:28.738Z,3.67
2023-03-18T18:50:58.571Z,4.80
2023-03-18T18:53:28.230Z,4.70
2023-03-18T18:55:57.911Z,3.77
2023-03-18T18:58:29.468Z,3.67
2023-03-18T19:00:57.700Z,3.13
2023-03-18T19:03:26.932Z,2.80
2023-03-18T19:05:55.754Z,2.83
2023-03-18T19:08:26.802Z,3.27
2023-03-18T19:10:56.421Z,2.70
2023-03-18T19:13:24.896Z,3.10
2023-03-18T19:15:53.443Z,3.40
2023-03-18T19:18:22.535Z,3.00
2023-03-18T19:20:51.068Z,2.77
2023-03-18T19:23:23.109Z,2.87
2023-03-18T19:25:53.427Z,3.00
2023-03-18T19:28:47.813Z,2.77
2023-03-18T19:31:20.949Z,2.90
2023-03-18T19:33:50.767Z,2.73
2023-03-18T19:36:24.269Z,3.03
2023-03-18T19:38:52.671Z,2.77
2023-03-18T19:41:22.553Z,3.40
2023-03-18T19:43:50.857Z,2.60
2023-03-18T19:46:27.710Z,2.70
2023-03-18T19:48:55.549Z,2.80
2023-03-18T19:51:23.439Z,2.60
2023-03-18T19:53:51.258Z,3.00
2023-03-18T19:56:25.485Z,3.10
2023-03-18T19:58:54.143Z,2.80
2023-03-18T20:01:23.006Z,2.67
2023-03-18T20:03:53.741Z,2.83
2023-03-18T20:06:21.877Z,3.00
2023-03-18T20:08:50.453Z,2.70
2023-03-18T20:11:20.910Z,2.90
2023-03-18T20:13:50.205Z,3.03
2023-03-18T20:16:19.584Z,2.67
2023-03-18T20:18:47.614Z,2.80
2023-03-18T20:21:20.519Z,2.90
2023-03-18T20:23:48.521Z,2.67
2023-03-18T20:26:16.719Z,2.37
2023-03-18T20:28:45.824Z,2.70
2023-03-18T20:31:15.228Z,2.90
2023-03-18T20:33:43.436Z,3.10
2023-03-18T20:36:15.946Z,3.20
2023-03-18T20:38:44.611Z,3.37
2023-03-18T20:41:16.476Z,4.00
2023-03-18T20:43:44.698Z,4.27
2023-03-18T20:46:15.635Z,3.60
2023-03-18T20:48:44.161Z,4.30
2023-03-18T20:51:20.202Z,3.43
2023-03-18T20:53:48.424Z,3.10
2023-03-18T20:56:16.581Z,3.97
2023-03-18T20:58:44.459Z,6.03
2023-03-18T21:01:14.919Z,6.10
2023-03-18T21:03:43.153Z,6.30
2023-03-18T21:06:14.066Z,6.70
2023-03-18T21:08:42.182Z,5.90
2023-03-18T21:11:18.197Z,5.03
2023-03-18T21:13:46.199Z,5.03
2023-03-18T21:16:16.808Z,4.77
2023-03-18T21:18:46.157Z,4.33
2023-03-18T21:21:20.712Z,4.20
2023-03-18T21:23:49.000Z,3.87
2023-03-18T21:26:16.962Z,4.40
2023-03-18T21:28:44.814Z,4.07
2023-03-18T21:31:23.462Z,3.90
2023-03-18T21:33:51.544Z,3.60
2023-03-18T21:36:19.396Z,3.87
2023-03-18T21:38:47.230Z,3.80
2023-03-18T21:41:22.196Z,3.57
2023-03-18T21:43:51.029Z,3.43
2023-03-18T21:46:22.025Z,3.13
2023-03-18T21:48:50.011Z,3.13
2023-03-18T21:51:37.525Z,2.97
2023-03-18T21:54:05.765Z,2.73
2023-03-18T21:56:33.588Z,2.70
2023-03-18T21:59:01.391Z,2.80
2023-03-18T22:01:32.388Z,2.60
2023-03-18T22:04:00.415Z,2.83
2023-03-18T22:06:28.293Z,2.60
2023-03-18T22:08:57.377Z,2.60
2023-03-18T22:11:25.633Z,2.57
2023-03-18T22:13:54.005Z,2.10
2023-03-18T22:16:22.010Z,2.90
2023-03-18T22:18:51.349Z,2.23
2023-03-18T22:21:22.607Z,2.73
2023-03-18T22:23:50.770Z,2.73
2023-03-18T22:26:19.912Z,2.27
2023-03-18T22:28:48.428Z,2.37
2023-03-18T22:31:19.617Z,2.27
2023-03-18T22:33:47.753Z,2.53
2023-03-18T22:36:18.151Z,2.83
2023-03-18T22:38:46.282Z,2.20
2023-03-18T22:41:17.435Z,2.13
2023-03-18T22:43:45.262Z,3.00
2023-03-18T22:46:13.536Z,2.30
2023-03-18T22:48:41.449Z,2.10
2023-03-18T22:51:09.465Z,2.23
2023-03-18T22:53:40.609Z,2.60
2023-03-18T22:56:10.561Z,2.43
2023-03-18T22:58:38.922Z,2.10
2023-03-18T23:01:07.313Z,2.57
2023-03-18T23:03:40.572Z,2.07
2023-03-18T23:06:08.671Z,2.73
2023-03-18T23:08:38.024Z,2.50
2023-03-18T23:11:06.387Z,2.03
2023-03-18T23:13:37.141Z,2.10
2023-03-18T23:16:06.122Z,2.10
2023-03-18T23:18:34.288Z,2.17
2023-03-18T23:21:02.671Z,2.40
2023-03-18T23:23:30.810Z,2.20
2023-03-18T23:26:00.209Z,2.30
2023-03-18T23:28:28.003Z,2.43
2023-03-18T23:30:56.302Z,2.70
2023-03-18T23:33:24.197Z,2.40
2023-03-18T23:35:52.075Z,2.30
2023-03-18T23:38:20.348Z,2.60
2023-03-18T23:40:48.213Z,2.13
2023-03-18T23:43:17.471Z,2.53
2023-03-18T23:45:45.833Z,2.20
2023-03-18T23:48:13.890Z,2.20
2023-03-18T23:50:41.861Z,2.17
2023-03-18T23:53:09.867Z,2.50
2023-03-18T23:55:37.803Z,2.40
2023-03-18T23:58:05.874Z,2.97
